Time;durP1;ratioP1;P1;durP2;ratioP2;P2;SDS_P1;SDS_P2;PMS_P1;PMS_P2;Temp;Humidity;BMP_temperature;BMP_pressure;BME280_temperature;BME280_humidity;BME280_pressure;Samples;Min_cycle;Max_cycle;Signal;HPM_P1;HPM_P2
2022/02/20 00:00:44;;;;;;;8.10;2.70;;;4.30;99.90;;;;;;5036206;28;20281;-82
2022/02/20 00:03:09;;;;;;;8.17;2.63;;;4.30;99.90;;;;;;5054787;28;20214;-82
2022/02/20 00:05:36;;;;;;;8.07;2.37;;;4.20;99.90;;;;;;5036437;28;20639;-82
2022/02/20 00:08:05;;;;;;;5.40;2.00;;;4.30;99.90;;;;;;5020174;28;20303;-81
2022/02/20 00:10:31;;;;;;;6.20;2.17;;;4.20;99.90;;;;;;5019955;28;20188;-82
2022/02/20 00:12:57;;;;;;;4.87;2.00;;;4.30;99.90;;;;;;5036011;28;20265;-82
2022/02/20 00:15:24;;;;;;;7.47;3.27;;;4.20;99.90;;;;;;5036219;28;20206;-81
2022/02/20 00:17:51;;;;;;;7.17;2.50;;;4.20;99.90;;;;;;5036242;28;20225;-82
2022/02/20 00:20:20;;;;;;;5.33;2.50;;;4.20;99.90;;;;;;5036434;28;20617;-82
2022/02/20 00:22:45;;;;;;;4.33;2.50;;;4.20;99.90;;;;;;5053806;28;20535;-82
2022/02/20 00:25:11;;;;;;;7.37;2.50;;;4.20;99.90;;;;;;5034920;28;20238;-82
2022/02/20 00:27:37;;;;;;;8.53;2.93;;;4.70;99.90;;;;;;5053620;28;20182;-82
2022/02/20 00:30:04;;;;;;;5.03;2.50;;;4.20;99.90;;;;;;5019255;28;20180;-82
2022/02/20 00:32:29;;;;;;;6.67;2.23;;;4.00;99.90;;;;;;5053705;28;20214;-82
2022/02/20 00:34:55;;;;;;;6.67;2.47;;;4.00;99.90;;;;;;5035965;28;20184;-82
2022/02/20 00:37:21;;;;;;;8.40;2.80;;;4.30;99.90;;;;;;5035922;28;20623;-82
2022/02/20 00:39:46;;;;;;;10.90;2.87;;;4.00;99.90;;;;;;5035534;28;20229;-81
2022/02/20 00:42:12;;;;;;;7.23;2.17;;;4.30;99.90;;;;;;5053578;28;20544;-81
2022/02/20 00:44:37;;;;;;;7.43;3.00;;;3.90;99.90;;;;;;5053332;28;20274;-81
2022/02/20 00:47:03;;;;;;;5.00;2.47;;;3.90;99.90;;;;;;5053311;28;20183;-81
2022/02/20 00:49:29;;;;;;;8.77;2.80;;;3.80;99.90;;;;;;5035309;28;20176;-82
2022/02/20 00:51:55;;;;;;;6.03;2.63;;;3.70;99.90;;;;;;5018760;28;20215;-81
2022/02/20 00:54:20;;;;;;;7.93;2.70;;;3.70;99.90;;;;;;5035411;28;20191;-82
2022/02/20 00:56:46;;;;;;;8.63;2.60;;;3.80;99.90;;;;;;5035459;28;20258;-82
2022/02/20 00:59:11;;;;;;;5.47;2.23;;;3.60;99.90;;;;;;5018741;28;20267;-82
2022/02/20 01:01:37;;;;;;;8.60;2.77;;;3.50;99.90;;;;;;5052802;28;20184;-86
2022/02/20 01:04:03;;;;;;;5.63;2.30;;;3.50;99.90;;;;;;5053209;28;20636;-82
2022/02/20 01:06:29;;;;;;;8.13;2.90;;;;;;;;;;5053380;28;20178;-82
2022/02/20 01:08:55;;;;;;;5.80;2.20;;;3.30;99.90;;;;;;5035190;28;20195;-82
2022/02/20 01:11:21;;;;;;;5.43;2.50;;;3.30;99.90;;;;;;5035145;28;20565;-82
2022/02/20 01:13:47;;;;;;;4.13;2.40;;;3.30;99.90;;;;;;5052758;28;20189;-82
2022/02/20 01:16:14;;;;;;;7.33;2.40;;;3.30;99.90;;;;;;5035499;28;20244;-82
2022/02/20 01:18:41;;;;;;;5.27;2.27;;;3.20;99.90;;;;;;5052789;28;20197;-85
2022/02/20 01:21:06;;;;;;;5.00;2.30;;;3.10;99.90;;;;;;5052891;28;20176;-81
2022/02/20 01:23:32;;;;;;;8.67;3.17;;;3.00;99.90;;;;;;5053381;28;20517;-81
2022/02/20 01:25:58;;;;;;;6.53;2.60;;;3.70;99.90;;;;;;5034562;28;20704;-82
2022/02/20 01:28:25;;;;;;;6.70;2.67;;;3.00;99.90;;;;;;5052886;28;20188;-82
2022/02/20 01:30:50;;;;;;;11.33;2.43;;;2.90;99.90;;;;;;5035306;28;20211;-82
2022/02/20 01:33:17;;;;;;;5.57;2.60;;;2.90;99.90;;;;;;5053258;28;20274;-81
2022/02/20 01:35:43;;;;;;;9.30;2.53;;;3.40;99.90;;;;;;5053013;28;20571;-82
2022/02/20 01:38:09;;;;;;;10.03;3.07;;;2.80;99.90;;;;;;5056875;28;20194;-81
2022/02/20 01:40:35;;;;;;;8.43;3.33;;;3.40;99.90;;;;;;5056818;28;20233;-81
2022/02/20 01:43:02;;;;;;;6.23;2.93;;;;;;;;;;5038577;28;20176;-81
2022/02/20 01:45:27;;;;;;;6.70;2.60;;;2.70;99.90;;;;;;5038833;28;20179;-81
2022/02/20 01:47:53;;;;;;;8.43;3.00;;;2.60;99.90;;;;;;5056879;28;20180;-82
2022/02/20 01:50:20;;;;;;;12.50;3.67;;;2.60;99.90;;;;;;5056865;28;20214;-81
2022/02/20 01:52:46;;;;;;;5.20;2.90;;;2.80;99.90;;;;;;5056700;28;20196;-82
2022/02/20 01:55:13;;;;;;;11.27;4.30;;;3.70;99.90;;;;;;5039126;28;20191;-82
2022/02/20 01:57:41;;;;;;;7.80;3.40;;;3.30;99.90;;;;;;5057241;28;20234;-82
2022/02/20 02:00:13;;;;;;;9.80;3.37;;;2.40;99.90;;;;;;5057369;28;20245;-81
2022/02/20 02:02:39;;;;;;;9.67;3.33;;;2.30;99.90;;;;;;5038855;28;20180;-81
2022/02/20 02:05:06;;;;;;;3.57;2.17;;;2.20;99.90;;;;;;5056471;28;20188;-81
2022/02/20 02:07:32;;;;;;;8.80;3.17;;;2.30;99.90;;;;;;5056918;28;20624;-81
2022/02/20 02:09:57;;;;;;;8.00;3.30;;;3.30;99.90;;;;;;5056344;28;20180;-81
2022/02/20 02:12:24;;;;;;;8.80;2.87;;;3.80;99.90;;;;;;5038483;28;20686;-82
2022/02/20 02:14:54;;;;;;;8.73;3.00;;;2.10;99.90;;;;;;5056506;28;20187;-82
2022/02/20 02:17:19;;;;;;;14.13;3.90;;;2.00;99.90;;;;;;5056628;28;20616;-82
2022/02/20 02:19:45;;;;;;;5.37;2.10;;;2.00;99.90;;;;;;5056518;28;20231;-82
2022/02/20 02:22:10;;;;;;;10.77;3.80;;;2.00;99.90;;;;;;5038490;28;20634;-81
2022/02/20 02:24:36;;;;;;;7.43;3.17;;;2.00;99.90;;;;;;5056144;28;20263;-81
2022/02/20 02:27:03;;;;;;;9.57;3.00;;;2.00;99.90;;;;;;5055886;28;20186;-82
2022/02/20 02:29:29;;;;;;;10.63;3.07;;;2.00;99.90;;;;;;5038731;28;20179;-81
2022/02/20 02:31:55;;;;;;;7.03;3.33;;;1.90;99.90;;;;;;5060573;28;20249;-84
2022/02/20 02:34:21;;;;;;;11.83;3.80;;;1.80;99.90;;;;;;5078540;28;20156;-82
2022/02/20 02:36:50;;;;;;;10.27;3.83;;;1.80;99.90;;;;;;5022092;28;20195;-82
2022/02/20 02:39:16;;;;;;;8.00;3.00;;;1.80;99.90;;;;;;5037908;28;20184;-82
2022/02/20 02:41:42;;;;;;;8.00;3.27;;;2.10;99.90;;;;;;5056015;28;20187;-82
2022/02/20 02:44:08;;;;;;;9.80;3.37;;;2.40;99.90;;;;;;5055867;28;20172;-82
2022/02/20 02:46:34;;;;;;;8.97;3.87;;;2.00;99.90;;;;;;5055410;28;20560;-82
2022/02/20 02:49:03;;;;;;;8.37;3.33;;;1.60;99.90;;;;;;5037225;28;20243;-82
2022/02/20 02:51:29;;;;;;;11.80;4.40;;;1.60;99.90;;;;;;5055797;28;20200;-82
2022/02/20 02:53:55;;;;;;;8.40;3.27;;;3.00;99.90;;;;;;5037666;28;20538;-82
2022/02/20 02:56:21;;;;;;;7.53;3.20;;;2.60;99.90;;;;;;5037799;28;20180;-81
2022/02/20 02:58:47;;;;;;;8.30;3.10;;;2.90;99.90;;;;;;5055791;28;20172;-81
2022/02/20 03:01:13;;;;;;;9.70;3.03;;;3.10;99.90;;;;;;5055385;28;20195;-81
2022/02/20 03:03:39;;;;;;;11.40;3.80;;;1.60;99.90;;;;;;5037857;28;20205;-81
2022/02/20 03:06:09;;;;;;;12.10;3.50;;;1.50;99.90;;;;;;5020779;28;20664;-81
2022/02/20 03:08:35;;;;;;;8.67;3.70;;;1.50;99.90;;;;;;5038059;28;20212;-81
2022/02/20 03:11:03;;;;;;;10.97;3.60;;;1.60;99.90;;;;;;5055317;28;20251;-81
2022/02/20 03:13:29;;;;;;;11.13;4.00;;;1.70;99.90;;;;;;5055426;28;20695;-81
2022/02/20 03:15:55;;;;;;;6.17;3.43;;;2.50;99.90;;;;;;5055156;28;20188;-81
2022/02/20 03:18:21;;;;;;;10.70;4.00;;;1.40;99.90;;;;;;5037575;28;20223;-82
2022/02/20 03:20:47;;;;;;;9.43;3.77;;;;;;;;;;5037397;28;20601;-81
2022/02/20 03:23:12;;;;;;;9.77;3.87;;;1.30;99.90;;;;;;5055045;28;20175;-81
2022/02/20 03:25:38;;;;;;;15.33;4.23;;;1.30;99.90;;;;;;5037468;28;20695;-81
2022/02/20 03:28:04;;;;;;;13.60;3.87;;;2.20;99.90;;;;;;5020874;28;20184;-81
2022/02/20 03:30:30;;;;;;;9.33;3.53;;;2.40;99.90;;;;;;5037338;28;20183;-80
2022/02/20 03:32:57;;;;;;;9.57;3.50;;;2.10;99.90;;;;;;5037595;28;20587;-81
2022/02/20 03:35:23;;;;;;;10.67;3.53;;;2.30;99.90;;;;;;5055785;28;20178;-81
2022/02/20 03:37:48;;;;;;;10.73;4.50;;;1.20;99.90;;;;;;5054778;28;20193;-81
2022/02/20 03:40:14;;;;;;;13.10;3.77;;;2.20;99.90;;;;;;5054792;28;20187;-81
2022/02/20 03:42:40;;;;;;;10.67;3.77;;;1.10;99.90;;;;;;5037619;28;20180;-81
2022/02/20 03:45:06;;;;;;;11.80;3.50;;;2.70;99.90;;;;;;5037172;28;20179;-81
2022/02/20 03:47:33;;;;;;;12.57;3.37;;;1.10;99.90;;;;;;5054970;28;20176;-81
2022/02/20 03:49:59;;;;;;;9.23;3.20;;;1.10;99.90;;;;;;5054948;28;20184;-81
2022/02/20 03:52:24;;;;;;;11.20;3.70;;;1.10;99.90;;;;;;5036790;28;20302;-81
2022/02/20 03:54:50;;;;;;;13.07;4.10;;;2.80;99.90;;;;;;5037087;28;20184;-82
2022/02/20 03:57:16;;;;;;;9.00;3.50;;;1.00;99.90;;;;;;5020362;28;20542;-82
2022/02/20 03:59:41;;;;;;;8.20;4.07;;;1.00;99.90;;;;;;5036684;28;20225;-82
2022/02/20 04:02:07;;;;;;;8.63;3.83;;;1.00;99.90;;;;;;5038567;28;20632;-82
2022/02/20 04:04:33;;;;;;;8.87;3.63;;;1.00;99.90;;;;;;5043892;28;20632;-82
2022/02/20 04:06:59;;;;;;;8.97;3.50;;;1.00;99.90;;;;;;5053718;28;20238;-82
2022/02/20 04:09:25;;;;;;;7.73;3.60;;;1.00;99.90;;;;;;5053250;28;20179;-82
2022/02/20 04:11:51;;;;;;;10.60;4.00;;;3.20;99.90;;;;;;5057202;28;20245;-82
2022/02/20 04:14:17;;;;;;;9.37;4.03;;;2.00;99.90;;;;;;5061092;28;20176;-81
2022/02/20 04:16:44;;;;;;;13.50;3.40;;;1.10;99.90;;;;;;5061644;28;20227;-81
2022/02/20 04:19:10;;;;;;;9.10;4.07;;;2.00;99.90;;;;;;5076868;28;20194;-81
2022/02/20 04:21:35;;;;;;;8.43;3.53;;;1.00;99.90;;;;;;5078759;28;20203;-81
2022/02/20 04:24:02;;;;;;;8.10;4.07;;;;;;;;;;5057924;28;20190;-81
2022/02/20 04:26:27;;;;;;;11.70;4.50;;;1.00;99.90;;;;;;5052497;28;20171;-82
2022/02/20 04:28:53;;;;;;;9.23;3.90;;;1.00;99.90;;;;;;5078424;28;20208;-81
2022/02/20 04:31:20;;;;;;;13.03;4.30;;;1.00;99.90;;;;;;5060746;28;20218;-82
2022/02/20 04:33:46;;;;;;;14.43;4.23;;;1.80;99.90;;;;;;5078203;28;20171;-81
2022/02/20 04:36:12;;;;;;;7.83;4.20;;;1.60;99.90;;;;;;5042444;28;20192;-81
2022/02/20 04:38:38;;;;;;;12.50;4.63;;;0.90;99.90;;;;;;5038247;28;20187;-81
2022/02/20 04:41:03;;;;;;;15.23;5.23;;;2.10;99.90;;;;;;5037492;28;20549;-81
2022/02/20 04:43:29;;;;;;;8.73;4.20;;;2.30;99.90;;;;;;5021523;28;20185;-81
2022/02/20 04:45:55;;;;;;;13.13;4.93;;;0.90;99.90;;;;;;5037268;28;20188;-81
2022/02/20 04:48:20;;;;;;;12.77;4.70;;;1.40;99.90;;;;;;5054946;28;20648;-81
2022/02/20 04:50:46;;;;;;;10.13;4.27;;;1.00;99.90;;;;;;5036661;28;20677;-81
2022/02/20 04:53:12;;;;;;;14.77;5.17;;;1.00;99.90;;;;;;5055360;28;20183;-81
2022/02/20 04:55:38;;;;;;;17.33;4.87;;;1.00;99.90;;;;;;5036737;28;20188;-81
2022/02/20 04:58:04;;;;;;;10.97;5.20;;;1.00;99.90;;;;;;5020647;28;20198;-81
2022/02/20 05:00:30;;;;;;;17.13;5.27;;;;;;;;;;5054463;28;20163;-82
2022/02/20 05:02:56;;;;;;;10.13;4.73;;;1.10;99.90;;;;;;5036405;28;20263;-81
2022/02/20 05:05:21;;;;;;;13.40;5.10;;;2.40;99.90;;;;;;5036585;28;20614;-81
2022/02/20 05:07:47;;;;;;;19.20;8.30;;;1.20;99.90;;;;;;5036012;28;20210;-82
2022/02/20 05:10:12;;;;;;;18.50;7.30;;;1.30;99.90;;;;;;5036138;28;20261;-86
2022/02/20 05:12:38;;;;;;;30.97;11.23;;;2.70;99.90;;;;;;5052637;28;20570;-81
2022/02/20 05:15:04;;;;;;;33.20;11.00;;;1.30;99.90;;;;;;5053482;28;20191;-81
2022/02/20 05:17:30;;;;;;;21.77;6.80;;;1.30;99.90;;;;;;5053172;28;20206;-82
2022/02/20 05:19:55;;;;;;;23.30;6.77;;;2.60;99.90;;;;;;5035656;28;20179;-81
2022/02/20 05:22:21;;;;;;;24.93;10.50;;;1.40;99.90;;;;;;5035238;28;20198;-82
2022/02/20 05:24:49;;;;;;;35.40;20.37;;;1.60;99.90;;;;;;5053090;28;20285;-81
2022/02/20 05:27:15;;;;;;;21.67;10.60;;;1.40;99.90;;;;;;5036290;28;20659;-87
2022/02/20 05:29:41;;;;;;;19.00;6.77;;;2.40;99.90;;;;;;5052822;28;20237;-81
2022/02/20 05:32:08;;;;;;;19.53;6.47;;;1.60;99.90;;;;;;5034846;28;20207;-81
2022/02/20 05:34:33;;;;;;;21.17;11.87;;;1.70;99.90;;;;;;5034641;28;20183;-81
2022/02/20 05:36:59;;;;;;;21.97;10.20;;;2.30;99.90;;;;;;5035229;28;20562;-81
2022/02/20 05:39:25;;;;;;;15.53;6.67;;;3.30;99.90;;;;;;5052780;28;20180;-81
2022/02/20 05:41:50;;;;;;;15.03;6.27;;;2.00;99.90;;;;;;5018976;28;20181;-81
2022/02/20 05:44:16;;;;;;;17.00;6.97;;;1.80;99.90;;;;;;5018685;28;20671;-81
2022/02/20 05:46:41;;;;;;;17.30;6.90;;;3.70;99.90;;;;;;5002202;28;20271;-81
2022/02/20 05:49:07;;;;;;;22.13;6.53;;;1.90;99.90;;;;;;5052793;28;20632;-81
2022/02/20 05:51:33;;;;;;;15.30;5.77;;;1.90;99.90;;;;;;5018369;28;20216;-81
2022/02/20 05:53:58;;;;;;;14.40;6.13;;;3.20;99.90;;;;;;5018579;28;20188;-81
2022/02/20 05:56:24;;;;;;;17.17;7.03;;;3.30;99.90;;;;;;5034758;28;20629;-81
2022/02/20 05:58:50;;;;;;;14.57;6.07;;;1.80;99.90;;;;;;5034869;28;20728;-81
2022/02/20 06:01:16;;;;;;;11.30;5.63;;;;;;;;;;5052462;28;20270;-81
2022/02/20 06:03:41;;;;;;;15.77;5.87;;;1.90;99.90;;;;;;5052430;28;20673;-81
2022/02/20 06:06:07;;;;;;;18.80;7.17;;;3.00;99.90;;;;;;5018650;28;20184;-81
2022/02/20 06:08:33;;;;;;;16.00;5.73;;;;;;;;;;5053253;28;20191;-81
2022/02/20 06:10:58;;;;;;;11.77;5.37;;;2.00;99.90;;;;;;5035441;28;20203;-81
2022/02/20 06:13:24;;;;;;;14.33;5.67;;;2.00;99.90;;;;;;5034987;28;20562;-81
2022/02/20 06:15:50;;;;;;;14.03;5.73;;;3.20;99.90;;;;;;5064353;28;20188;-81
2022/02/20 06:18:16;;;;;;;17.33;5.53;;;4.00;99.90;;;;;;5075998;28;20172;-81
2022/02/20 06:20:42;;;;;;;13.87;7.07;;;2.50;99.90;;;;;;5043294;28;20648;-81
2022/02/20 06:23:07;;;;;;;12.33;5.67;;;2.10;99.90;;;;;;5053225;28;20184;-81
2022/02/20 06:25:33;;;;;;;11.93;5.30;;;4.10;99.90;;;;;;5038592;28;20738;-82
2022/02/20 06:27:59;;;;;;;14.03;6.27;;;2.10;99.90;;;;;;5055613;28;20199;-81
2022/02/20 06:30:24;;;;;;;19.27;6.53;;;2.10;99.90;;;;;;5020935;28;20239;-83
2022/02/20 06:32:50;;;;;;;12.23;4.70;;;2.70;99.90;;;;;;5055885;28;20203;-83
2022/02/20 06:35:16;;;;;;;16.60;7.57;;;;;;;;;;5037840;28;20320;-83
2022/02/20 06:37:42;;;;;;;12.77;5.90;;;2.20;99.90;;;;;;5055830;28;20176;-82
2022/02/20 06:40:08;;;;;;;16.63;7.37;;;2.30;99.90;;;;;;5055474;28;20219;-82
2022/02/20 06:42:34;;;;;;;12.43;5.30;;;2.30;99.90;;;;;;5055297;28;20199;-82
2022/02/20 06:44:59;;;;;;;15.70;6.47;;;2.30;99.90;;;;;;5055525;28;20656;-83
2022/02/20 06:47:25;;;;;;;20.23;7.87;;;2.90;99.90;;;;;;5037693;28;20192;-82
2022/02/20 06:49:51;;;;;;;14.97;6.90;;;;;;;;;;5055411;28;20187;-82
2022/02/20 06:52:17;;;;;;;12.37;5.30;;;2.40;99.90;;;;;;5021306;28;20206;-81
2022/02/20 06:54:43;;;;;;;11.03;5.90;;;2.30;99.90;;;;;;5037614;28;20192;-82
2022/02/20 06:57:08;;;;;;;12.70;4.53;;;3.40;99.90;;;;;;5037393;28;20180;-82
2022/02/20 06:59:34;;;;;;;12.67;4.47;;;2.50;99.90;;;;;;5055221;28;20192;-83
2022/02/20 07:02:00;;;;;;;10.83;4.93;;;2.60;99.90;;;;;;5037136;28;20187;-82
2022/02/20 07:04:26;;;;;;;9.43;4.20;;;2.60;99.90;;;;;;5037182;28;20246;-83
2022/02/20 07:06:52;;;;;;;15.10;4.57;;;2.70;99.90;;;;;;5055045;28;20186;-84
2022/02/20 07:09:17;;;;;;;10.03;4.40;;;2.70;99.90;;;;;;5021460;28;20621;-83
2022/02/20 07:11:44;;;;;;;12.27;4.63;;;2.80;99.90;;;;;;5021006;28;20211;-82
2022/02/20 07:14:10;;;;;;;18.53;8.97;;;2.80;99.90;;;;;;5037946;28;20211;-82
2022/02/20 07:16:36;;;;;;;14.93;6.20;;;2.90;99.90;;;;;;5037606;28;20640;-83
2022/02/20 07:19:02;;;;;;;12.23;4.77;;;3.00;99.90;;;;;;5037507;28;20195;-80
2022/02/20 07:21:29;;;;;;;10.60;4.43;;;3.00;99.90;;;;;;5055668;28;20718;-82
2022/02/20 07:23:57;;;;;;;11.10;3.90;;;3.00;99.90;;;;;;5037091;28;20189;-81
2022/02/20 07:26:23;;;;;;;9.97;4.00;;;3.00;99.90;;;;;;5037567;28;20180;-82
2022/02/20 07:28:49;;;;;;;14.17;5.17;;;3.20;99.90;;;;;;5056198;28;20536;-82
2022/02/20 07:31:14;;;;;;;15.57;6.13;;;3.10;99.90;;;;;;5020829;28;20220;-83
2022/02/20 07:33:40;;;;;;;20.97;6.73;;;3.10;99.90;;;;;;5036590;28;20191;-82
2022/02/20 07:36:06;;;;;;;13.53;5.60;;;3.10;99.90;;;;;;5054904;28;20594;-83
2022/02/20 07:38:32;;;;;;;12.57;4.47;;;3.20;99.90;;;;;;5037414;28;20174;-83
2022/02/20 07:40:59;;;;;;;9.97;3.53;;;3.20;99.90;;;;;;5054405;28;20207;-84
2022/02/20 07:43:28;;;;;;;9.17;3.53;;;3.30;99.90;;;;;;5049130;28;20188;-81
2022/02/20 07:45:54;;;;;;;10.30;3.40;;;3.30;99.90;;;;;;5021029;28;20597;-83
2022/02/20 07:48:20;;;;;;;9.37;3.50;;;3.30;99.90;;;;;;5021491;28;20188;-83
2022/02/20 07:50:45;;;;;;;7.53;3.77;;;3.40;99.90;;;;;;5037618;28;20594;-85
2022/02/20 07:53:11;;;;;;;9.03;3.53;;;3.50;99.90;;;;;;5053369;28;20207;-85
2022/02/20 07:55:37;;;;;;;10.80;3.83;;;3.50;99.90;;;;;;5020029;28;20656;-83
2022/02/20 07:58:05;;;;;;;6.17;3.33;;;3.70;99.90;;;;;;5035616;28;20493;-85
2022/02/20 08:00:31;;;;;;;7.07;3.27;;;3.60;99.90;;;;;;5018115;28;20195;-82
2022/02/20 08:02:57;;;;;;;7.33;3.97;;;3.70;99.90;;;;;;5037023;28;20204;-83
2022/02/20 08:05:23;;;;;;;12.47;3.40;;;3.80;99.90;;;;;;5048416;28;20175;-82
2022/02/20 08:07:49;;;;;;;9.40;3.70;;;3.80;99.90;;;;;;5035724;28;20274;-81
2022/02/20 08:10:15;;;;;;;11.80;3.70;;;3.90;99.90;;;;;;5053911;28;20655;-82
2022/02/20 08:12:41;;;;;;;6.73;3.33;;;4.00;99.00;;;;;;5036157;28;20213;-83
2022/02/20 08:15:07;;;;;;;9.07;3.73;;;4.00;99.40;;;;;;5036356;28;20564;-82
2022/02/20 08:17:33;;;;;;;7.10;3.27;;;4.00;99.20;;;;;;5036198;28;20250;-81
2022/02/20 08:19:59;;;;;;;9.70;3.03;;;;;;;;;;5019774;28;20199;-82
2022/02/20 08:22:25;;;;;;;9.57;3.57;;;;;;;;;;5036060;28;20199;-84
2022/02/20 08:24:51;;;;;;;7.03;3.40;;;4.10;95.90;;;;;;5053372;28;20289;-83
2022/02/20 08:27:17;;;;;;;7.90;2.83;;;4.10;96.70;;;;;;5008752;28;20196;-81
2022/02/20 08:29:43;;;;;;;4.53;2.83;;;4.10;95.60;;;;;;5032403;28;20184;-82
2022/02/20 08:32:09;;;;;;;7.23;2.87;;;4.10;95.50;;;;;;5035744;28;20282;-83
2022/02/20 08:34:35;;;;;;;10.20;3.17;;;4.10;95.70;;;;;;5032827;28;20195;-83
2022/02/20 08:37:04;;;;;;;10.70;3.50;;;4.10;94.40;;;;;;5053360;28;20189;-82
2022/02/20 08:39:30;;;;;;;10.73;3.40;;;4.20;93.70;;;;;;5051258;28;20189;-81
2022/02/20 08:41:57;;;;;;;8.33;2.93;;;4.20;93.60;;;;;;5035932;28;20207;-82
2022/02/20 08:44:23;;;;;;;9.90;3.70;;;4.10;94.50;;;;;;5035473;28;20217;-82
2022/02/20 08:46:49;;;;;;;12.90;4.53;;;4.20;94.80;;;;;;5052983;28;20185;-82
2022/02/20 08:49:15;;;;;;;7.77;3.50;;;4.20;94.30;;;;;;5053751;28;20185;-82
2022/02/20 08:51:40;;;;;;;13.90;4.20;;;4.20;94.10;;;;;;5036322;28;20208;-83
2022/02/20 08:54:06;;;;;;;10.40;4.40;;;4.20;94.90;;;;;;5032008;28;20188;-83
2022/02/20 08:56:32;;;;;;;6.07;2.77;;;4.30;94.50;;;;;;5025608;28;20187;-85
2022/02/20 08:59:00;;;;;;;12.33;4.50;;;4.30;92.80;;;;;;5052269;28;20175;-82
2022/02/20 09:01:27;;;;;;;8.43;3.50;;;4.30;95.30;;;;;;5035438;28;20194;-82
2022/02/20 09:04:02;;;;;;;23.20;10.47;;;4.30;96.20;;;;;;5035573;28;20188;-83
2022/02/20 09:06:29;;;;;;;7.67;3.37;;;4.30;98.90;;;;;;5042357;28;20186;-82
2022/02/20 09:08:55;;;;;;;10.27;3.20;;;4.40;97.40;;;;;;5054744;28;20194;-82
2022/02/20 09:11:21;;;;;;;8.70;2.73;;;4.40;93.50;;;;;;5038882;28;20220;-82
2022/02/20 09:13:46;;;;;;;7.53;3.10;;;4.40;91.30;;;;;;5040638;28;20214;-84
2022/02/20 09:16:12;;;;;;;8.33;2.67;;;4.30;93.80;;;;;;5035691;28;20182;-84
2022/02/20 09:18:38;;;;;;;9.20;2.97;;;4.60;91.00;;;;;;5055656;28;20170;-83
2022/02/20 09:21:03;;;;;;;21.80;6.83;;;4.80;89.80;;;;;;5053178;28;20237;-82
2022/02/20 09:23:29;;;;;;;18.13;5.53;;;4.90;92.10;;;;;;5066318;28;20190;-85
2022/02/20 09:25:55;;;;;;;35.23;9.20;;;5.10;90.00;;;;;;5028917;28;20253;-82
2022/02/20 09:28:20;;;;;;;13.67;4.00;;;5.30;90.00;;;;;;5022571;28;20279;-84
2022/02/20 09:30:46;;;;;;;6.80;2.53;;;5.50;81.90;;;;;;5054822;28;20632;-84
2022/02/20 09:33:12;;;;;;;6.63;2.47;;;5.60;76.90;;;;;;5036816;28;20188;-86
2022/02/20 09:35:38;;;;;;;5.20;2.43;;;5.70;77.20;;;;;;5039464;28;20211;-84
2022/02/20 09:38:03;;;;;;;7.67;2.70;;;5.80;76.10;;;;;;5020563;28;20210;-83
2022/02/20 09:40:32;;;;;;;11.77;3.13;;;5.90;75.00;;;;;;5037120;28;20203;-83
2022/02/20 09:43:00;;;;;;;7.60;2.67;;;5.90;75.30;;;;;;5020112;28;20199;-85
2022/02/20 09:45:26;;;;;;;6.00;2.73;;;6.00;74.70;;;;;;5035465;28;20271;-84
2022/02/20 09:47:52;;;;;;;4.83;2.53;;;6.00;74.70;;;;;;5054632;28;20176;-83
2022/02/20 09:50:18;;;;;;;3.90;2.10;;;6.00;76.50;;;;;;5054241;28;20194;-84
2022/02/20 09:52:44;;;;;;;6.30;2.73;;;6.70;82.40;;;;;;5019887;28;20211;-84
2022/02/20 09:55:10;;;;;;;6.50;2.93;;;;;;;;;;5036987;28;20229;-84
2022/02/20 09:57:36;;;;;;;5.53;2.20;;;6.40;74.30;;;;;;5022195;28;20184;-84
2022/02/20 10:00:06;;;;;;;5.33;2.30;;;6.60;72.70;;;;;;5051238;28;20203;-84
2022/02/20 10:02:37;;;;;;;6.93;2.73;;;6.70;71.80;;;;;;5079763;28;20274;-89
2022/02/20 10:05:04;;;;;;;5.80;2.10;;;6.60;73.50;;;;;;5063516;28;20179;-84
2022/02/20 10:07:35;;;;;;;7.93;2.60;;;6.70;72.30;;;;;;5023023;28;20271;-84
2022/02/20 10:10:14;;;;;;;8.67;3.23;;;6.80;78.80;;;;;;5056992;28;20179;-84
2022/02/20 10:12:40;;;;;;;6.73;2.80;;;6.70;73.40;;;;;;5039998;28;20238;-84
2022/02/20 10:15:30;;;;;;;6.53;2.83;;;6.80;73.30;;;;;;5040605;28;20215;-83
2022/02/20 10:18:10;;;;;;;11.07;2.53;;;6.60;75.20;;;;;;5078556;28;20179;-84
2022/02/20 10:20:36;;;;;;;4.37;2.43;;;6.40;75.30;;;;;;5080447;28;20164;-85
2022/02/20 10:23:09;;;;;;;5.10;2.50;;;6.30;77.30;;;;;;5080402;28;20175;-84
2022/02/20 10:25:35;;;;;;;6.10;2.53;;;6.20;79.00;;;;;;5080027;28;20235;-85
2022/02/20 10:28:05;;;;;;;6.17;2.20;;;6.10;82.00;;;;;;5070251;28;20209;-86
2022/02/20 10:30:33;;;;;;;4.93;2.00;;;;;;;;;;5080690;28;20240;-88
2022/02/20 10:33:10;;;;;;;6.23;2.37;;;6.10;84.30;;;;;;5052480;28;20279;-85
2022/02/20 10:35:39;;;;;;;6.77;2.57;;;6.10;91.60;;;;;;5079118;28;20195;-85
2022/02/20 10:38:11;;;;;;;4.67;2.30;;;6.10;87.70;;;;;;5080574;28;20191;-84
2022/02/20 10:40:38;;;;;;;5.60;2.53;;;6.10;88.10;;;;;;5045534;28;20715;-89
2022/02/20 10:43:07;;;;;;;8.60;2.83;;;6.00;91.10;;;;;;5072320;28;20173;-91
2022/02/20 10:45:36;;;;;;;3.43;1.87;;;6.00;92.70;;;;;;5060819;28;20203;-85
2022/02/20 10:48:05;;;;;;;5.43;2.40;;;6.00;94.50;;;;;;5061071;28;20211;-83
2022/02/20 10:50:32;;;;;;;6.83;2.47;;;6.00;95.20;;;;;;5042976;28;20195;-84
2022/02/20 10:53:19;;;;;;;5.93;2.50;;;6.20;96.30;;;;;;5062689;28;20187;-83
2022/02/20 10:55:49;;;;;;;6.70;1.93;;;6.00;96.90;;;;;;5050342;28;20197;-84
2022/02/20 10:58:18;;;;;;;9.13;2.90;;;5.90;99.80;;;;;;5026753;28;20201;-84
2022/02/20 11:00:56;;;;;;;6.67;2.73;;;5.90;99.90;;;;;;5018159;28;20196;-86
2022/02/20 11:03:26;;;;;;;7.03;2.63;;;5.80;99.90;;;;;;5043474;28;20243;-89
2022/02/20 11:05:54;;;;;;;6.07;2.73;;;5.70;99.90;;;;;;5027651;28;20187;-86
2022/02/20 11:08:24;;;;;;;6.43;2.17;;;5.70;99.90;;;;;;5028473;28;20184;-85
2022/02/20 11:10:51;;;;;;;6.20;2.17;;;5.70;99.90;;;;;;5061084;28;20160;-85
2022/02/20 11:13:18;;;;;;;2.63;1.90;;;5.60;99.90;;;;;;5025329;28;20195;-86
2022/02/20 11:15:46;;;;;;;3.27;2.03;;;5.50;99.90;;;;;;5060137;28;20937;-87
2022/02/20 11:18:16;;;;;;;9.17;3.10;;;5.50;99.90;;;;;;5041222;28;20237;-86
2022/02/20 11:20:45;;;;;;;9.93;3.10;;;5.50;99.90;;;;;;5023351;28;20176;-84
2022/02/20 11:23:12;;;;;;;7.77;2.80;;;5.50;99.90;;;;;;5040428;28;20171;-84
2022/02/20 11:25:42;;;;;;;4.73;2.73;;;5.50;99.90;;;;;;5021983;28;20224;-85
2022/02/20 11:28:08;;;;;;;7.27;3.10;;;5.50;99.90;;;;;;5022135;28;20180;-85
2022/02/20 11:30:35;;;;;;;7.97;3.37;;;5.50;99.90;;;;;;5037021;28;20731;-85
2022/02/20 11:33:04;;;;;;;5.30;2.77;;;5.50;99.90;;;;;;5036994;28;20214;-85
2022/02/20 11:35:32;;;;;;;7.43;3.00;;;5.50;99.90;;;;;;5021623;28;20671;-86
2022/02/20 11:38:26;;;;;;;6.23;3.30;;;5.40;99.90;;;;;;5039102;28;20177;-88
2022/02/20 11:41:08;;;;;;;5.97;2.93;;;5.40;99.90;;;;;;5015687;28;20601;-86
2022/02/20 11:43:49;;;;;;;5.77;3.20;;;5.50;99.90;;;;;;5038221;28;20195;-87
2022/02/20 11:46:20;;;;;;;6.67;2.97;;;5.60;99.90;;;;;;5023177;28;20180;-85
2022/02/20 11:49:26;;;;;;;13.67;3.40;;;5.50;99.90;;;;;;5037382;28;20582;-85
2022/02/20 11:52:08;;;;;;;5.97;2.73;;;5.20;99.90;;;;;;5003699;28;20278;-85
2022/02/20 11:54:37;;;;;;;5.47;2.70;;;5.50;99.90;;;;;;5038572;28;20690;-87
2022/02/20 11:57:12;;;;;;;8.03;3.20;;;5.50;99.90;;;;;;5035911;28;20176;-87
2022/02/20 11:59:39;;;;;;;6.63;2.93;;;5.40;99.90;;;;;;5042258;28;20593;-86
2022/02/20 12:02:12;;;;;;;5.70;2.50;;;5.30;99.90;;;;;;5040083;28;20194;-86
2022/02/20 12:05:08;;;;;;;8.20;2.97;;;5.40;99.90;;;;;;5038258;28;20627;-86
2022/02/20 12:07:46;;;;;;;9.33;2.77;;;5.10;99.90;;;;;;5042075;28;20204;-85
2022/02/20 12:10:21;;;;;;;5.10;3.00;;;5.10;99.90;;;;;;5020502;28;20175;-87
2022/02/20 12:12:48;;;;;;;4.93;2.93;;;5.00;99.90;;;;;;5019847;28;20218;-87
2022/02/20 12:15:40;;;;;;;4.83;2.53;;;5.00;99.90;;;;;;5018056;28;20185;-88
2022/02/20 12:18:15;;;;;;;4.97;2.90;;;4.90;99.90;;;;;;5034836;28;20227;-90
2022/02/20 12:20:50;;;;;;;5.00;3.40;;;4.80;99.90;;;;;;5016198;28;20187;-88
2022/02/20 12:23:33;;;;;;;4.97;2.60;;;4.40;99.90;;;;;;5035824;28;20179;-85
2022/02/20 12:26:01;;;;;;;6.73;3.10;;;4.50;99.90;;;;;;5019820;28;20247;-86
2022/02/20 12:28:39;;;;;;;5.67;3.27;;;4.50;99.90;;;;;;5018176;28;20184;-87
2022/02/20 12:31:09;;;;;;;9.27;3.93;;;4.60;99.90;;;;;;5034391;28;20319;-85
2022/02/20 12:33:38;;;;;;;8.67;4.10;;;4.50;99.90;;;;;;5035180;28;20191;-86
2022/02/20 12:36:07;;;;;;;5.67;3.67;;;4.50;99.90;;;;;;5017612;28;20178;-85
2022/02/20 12:38:33;;;;;;;8.90;4.17;;;4.60;99.90;;;;;;5017480;28;20186;-85
2022/02/20 12:40:59;;;;;;;7.70;4.23;;;;;;;;;;5016839;28;20181;-86
2022/02/20 12:43:26;;;;;;;5.73;3.93;;;4.60;99.90;;;;;;5016785;28;20274;-86
2022/02/20 12:45:52;;;;;;;7.40;3.60;;;5.20;99.90;;;;;;5035275;28;20183;-87
2022/02/20 12:48:18;;;;;;;4.73;2.80;;;;;;;;;;5033977;28;20277;-86
2022/02/20 12:50:47;;;;;;;4.53;3.37;;;4.40;99.90;;;;;;5017993;28;20212;-86
2022/02/20 12:53:14;;;;;;;5.53;3.40;;;;;;;;;;5033996;28;20204;-86
2022/02/20 12:55:42;;;;;;;5.67;4.30;;;4.10;99.90;;;;;;5034139;28;20204;-85
2022/02/20 12:58:10;;;;;;;7.63;4.87;;;4.10;99.90;;;;;;4999969;28;20189;-85